sensor_id;sensor_type;location;lat;lon;timestamp;P1;durP1;ratioP1;P2;durP2;ratioP2
23617;SDS011;18207;32.078;34.818;2022-09-01T00:02:28;2.40;;;2.30;;
23617;SDS011;18207;32.078;34.818;2022-09-01T00:04:59;2.10;;;2.00;;
23617;SDS011;18207;32.078;34.818;2022-09-01T00:07:32;2.35;;;2.25;;
23617;SDS011;18207;32.078;34.818;2022-09-01T00:10:04;2.30;;;2.20;;
23617;SDS011;18207;32.078;34.818;2022-09-01T00:12:37;2.20;;;2.10;;
23617;SDS011;18207;32.078;34.818;2022-09-01T00:15:10;2.10;;;2.00;;
23617;SDS011;18207;32.078;34.818;2022-09-01T00:17:43;2.20;;;2.10;;
23617;SDS011;18207;32.078;34.818;2022-09-01T00:20:17;2.40;;;2.20;;
23617;SDS011;18207;32.078;34.818;2022-09-01T00:22:49;2.40;;;2.30;;
23617;SDS011;18207;32.078;34.818;2022-09-01T00:25:21;2.30;;;2.20;;
23617;SDS011;18207;32.078;34.818;2022-09-01T00:27:55;2.42;;;2.33;;
23617;SDS011;18207;32.078;34.818;2022-09-01T00:30:33;2.60;;;2.40;;
23617;SDS011;18207;32.078;34.818;2022-09-01T00:33:04;2.35;;;2.25;;
23617;SDS011;18207;32.078;34.818;2022-09-01T00:35:35;2.40;;;2.30;;
23617;SDS011;18207;32.078;34.818;2022-09-01T00:38:20;2.20;;;2.10;;
23617;SDS011;18207;32.078;34.818;2022-09-01T00:40:51;2.20;;;2.10;;
23617;SDS011;18207;32.078;34.818;2022-09-01T00:43:28;2.20;;;2.10;;
23617;SDS011;18207;32.078;34.818;2022-09-01T00:46:09;2.15;;;2.05;;
23617;SDS011;18207;32.078;34.818;2022-09-01T00:48:50;2.00;;;1.90;;
23617;SDS011;18207;32.078;34.818;2022-09-01T00:51:25;2.47;;;2.17;;
23617;SDS011;18207;32.078;34.818;2022-09-01T00:54:12;2.30;;;2.20;;
23617;SDS011;18207;32.078;34.818;2022-09-01T00:56:49;2.50;;;2.30;;
23617;SDS011;18207;32.078;34.818;2022-09-01T00:59:26;2.35;;;2.25;;
23617;SDS011;18207;32.078;34.818;2022-09-01T01:01:57;2.35;;;2.20;;
23617;SDS011;18207;32.078;34.818;2022-09-01T01:04:29;2.45;;;2.25;;
23617;SDS011;18207;32.078;34.818;2022-09-01T01:07:00;2.40;;;2.30;;
23617;SDS011;18207;32.078;34.818;2022-09-01T01:09:35;2.30;;;2.20;;
23617;SDS011;18207;32.078;34.818;2022-09-01T01:12:12;2.10;;;2.00;;
23617;SDS011;18207;32.078;34.818;2022-09-01T01:14:44;2.20;;;2.10;;
23617;SDS011;18207;32.078;34.818;2022-09-01T01:17:28;2.40;;;2.30;;
23617;SDS011;18207;32.078;34.818;2022-09-01T01:19:59;2.40;;;2.20;;
23617;SDS011;18207;32.078;34.818;2022-09-01T01:22:52;2.30;;;2.10;;
23617;SDS011;18207;32.078;34.818;2022-09-01T01:25:36;2.13;;;2.03;;
23617;SDS011;18207;32.078;34.818;2022-09-01T01:28:20;2.15;;;2.05;;
23617;SDS011;18207;32.078;34.818;2022-09-01T01:30:58;2.08;;;1.98;;
23617;SDS011;18207;32.078;34.818;2022-09-01T01:33:33;2.50;;;2.30;;
23617;SDS011;18207;32.078;34.818;2022-09-01T01:36:13;2.38;;;2.22;;
23617;SDS011;18207;32.078;34.818;2022-09-01T01:39:00;2.15;;;2.05;;
23617;SDS011;18207;32.078;34.818;2022-09-01T01:41:53;2.05;;;1.90;;
23617;SDS011;18207;32.078;34.818;2022-09-01T01:44:27;2.15;;;2.05;;
23617;SDS011;18207;32.078;34.818;2022-09-01T01:46:59;2.08;;;1.98;;
23617;SDS011;18207;32.078;34.818;2022-09-01T01:49:31;2.10;;;2.00;;
23617;SDS011;18207;32.078;34.818;2022-09-01T01:52:03;2.00;;;1.90;;
23617;SDS011;18207;32.078;34.818;2022-09-01T01:54:33;2.33;;;2.22;;
23617;SDS011;18207;32.078;34.818;2022-09-01T01:57:06;2.45;;;2.25;;
23617;SDS011;18207;32.078;34.818;2022-09-01T01:59:37;2.75;;;2.30;;
23617;SDS011;18207;32.078;34.818;2022-09-01T02:02:08;2.50;;;2.30;;
23617;SDS011;18207;32.078;34.818;2022-09-01T02:04:50;2.53;;;2.33;;
23617;SDS011;18207;32.078;34.818;2022-09-01T02:07:21;1.98;;;1.88;;
23617;SDS011;18207;32.078;34.818;2022-09-01T02:09:58;2.67;;;2.47;;
23617;SDS011;18207;32.078;34.818;2022-09-01T02:12:32;2.60;;;2.40;;
23617;SDS011;18207;32.078;34.818;2022-09-01T02:15:04;2.38;;;2.25;;
23617;SDS011;18207;32.078;34.818;2022-09-01T02:17:38;2.30;;;2.20;;
23617;SDS011;18207;32.078;34.818;2022-09-01T02:20:15;2.55;;;2.35;;
23617;SDS011;18207;32.078;34.818;2022-09-01T02:22:46;2.35;;;2.25;;
23617;SDS011;18207;32.078;34.818;2022-09-01T02:25:18;2.25;;;2.08;;
23617;SDS011;18207;32.078;34.818;2022-09-01T02:27:53;2.20;;;2.00;;
23617;SDS011;18207;32.078;34.818;2022-09-01T02:30:26;1.98;;;1.88;;
23617;SDS011;18207;32.078;34.818;2022-09-01T02:33:01;2.08;;;1.98;;
23617;SDS011;18207;32.078;34.818;2022-09-01T02:35:32;2.40;;;2.22;;
23617;SDS011;18207;32.078;34.818;2022-09-01T02:40:52;1.92;;;1.83;;
23617;SDS011;18207;32.078;34.818;2022-09-01T02:43:28;2.10;;;2.00;;
23617;SDS011;18207;32.078;34.818;2022-09-01T02:46:00;2.13;;;2.03;;
23617;SDS011;18207;32.078;34.818;2022-09-01T02:48:33;2.58;;;2.10;;
23617;SDS011;18207;32.078;34.818;2022-09-01T02:51:08;2.10;;;2.00;;
23617;SDS011;18207;32.078;34.818;2022-09-01T02:53:48;2.00;;;1.90;;
23617;SDS011;18207;32.078;34.818;2022-09-01T02:56:19;2.00;;;1.90;;
23617;SDS011;18207;32.078;34.818;2022-09-01T02:58:55;2.00;;;1.90;;
23617;SDS011;18207;32.078;34.818;2022-09-01T03:01:29;1.73;;;1.63;;
23617;SDS011;18207;32.078;34.818;2022-09-01T03:04:10;1.73;;;1.67;;
23617;SDS011;18207;32.078;34.818;2022-09-01T03:06:50;2.25;;;2.15;;
23617;SDS011;18207;32.078;34.818;2022-09-01T03:09:21;2.13;;;1.88;;
23617;SDS011;18207;32.078;34.818;2022-09-01T03:11:51;1.95;;;1.80;;
23617;SDS011;18207;32.078;34.818;2022-09-01T03:17:12;1.70;;;1.60;;
23617;SDS011;18207;32.078;34.818;2022-09-01T03:19:42;2.03;;;1.80;;
23617;SDS011;18207;32.078;34.818;2022-09-01T03:22:26;1.73;;;1.63;;
23617;SDS011;18207;32.078;34.818;2022-09-01T03:24:57;1.88;;;1.77;;
23617;SDS011;18207;32.078;34.818;2022-09-01T03:27:28;2.13;;;1.90;;
23617;SDS011;18207;32.078;34.818;2022-09-01T03:30:01;1.90;;;1.80;;
23617;SDS011;18207;32.078;34.818;2022-09-01T03:32:33;2.10;;;1.80;;
23617;SDS011;18207;32.078;34.818;2022-09-01T03:35:05;1.90;;;1.80;;
23617;SDS011;18207;32.078;34.818;2022-09-01T03:37:36;1.77;;;1.67;;
23617;SDS011;18207;32.078;34.818;2022-09-01T03:40:11;1.80;;;1.70;;
23617;SDS011;18207;32.078;34.818;2022-09-01T03:42:44;1.80;;;1.70;;
23617;SDS011;18207;32.078;34.818;2022-09-01T03:45:17;1.52;;;1.42;;
23617;SDS011;18207;32.078;34.818;2022-09-01T03:47:48;1.65;;;1.55;;
23617;SDS011;18207;32.078;34.818;2022-09-01T03:50:21;1.55;;;1.55;;
23617;SDS011;18207;32.078;34.818;2022-09-01T03:52:55;1.65;;;1.60;;
23617;SDS011;18207;32.078;34.818;2022-09-01T03:55:29;1.60;;;1.55;;
23617;SDS011;18207;32.078;34.818;2022-09-01T03:58:13;1.40;;;1.40;;
23617;SDS011;18207;32.078;34.818;2022-09-01T04:00:56;2.13;;;1.65;;
23617;SDS011;18207;32.078;34.818;2022-09-01T04:03:30;1.45;;;1.42;;
23617;SDS011;18207;32.078;34.818;2022-09-01T04:06:06;2.30;;;1.58;;
23617;SDS011;18207;32.078;34.818;2022-09-01T04:08:38;1.90;;;1.80;;
23617;SDS011;18207;32.078;34.818;2022-09-01T04:11:11;2.17;;;1.75;;
23617;SDS011;18207;32.078;34.818;2022-09-01T04:13:44;1.67;;;1.58;;
23617;SDS011;18207;32.078;34.818;2022-09-01T04:16:20;1.70;;;1.60;;
23617;SDS011;18207;32.078;34.818;2022-09-01T04:19:12;1.80;;;1.70;;
23617;SDS011;18207;32.078;34.818;2022-09-01T04:21:53;1.80;;;1.70;;
23617;SDS011;18207;32.078;34.818;2022-09-01T04:24:26;1.70;;;1.60;;
23617;SDS011;18207;32.078;34.818;2022-09-01T04:27:01;1.80;;;1.70;;
23617;SDS011;18207;32.078;34.818;2022-09-01T04:29:33;1.70;;;1.60;;
23617;SDS011;18207;32.078;34.818;2022-09-01T04:32:08;1.70;;;1.60;;
23617;SDS011;18207;32.078;34.818;2022-09-01T04:34:39;1.73;;;1.63;;
23617;SDS011;18207;32.078;34.818;2022-09-01T04:39:55;1.40;;;1.35;;
23617;SDS011;18207;32.078;34.818;2022-09-01T04:42:29;1.52;;;1.50;;
23617;SDS011;18207;32.078;34.818;2022-09-01T04:45:01;1.73;;;1.42;;
23617;SDS011;18207;32.078;34.818;2022-09-01T04:47:38;1.88;;;1.70;;
23617;SDS011;18207;32.078;34.818;2022-09-01T04:50:09;1.65;;;1.58;;
23617;SDS011;18207;32.078;34.818;2022-09-01T04:52:43;1.65;;;1.55;;
23617;SDS011;18207;32.078;34.818;2022-09-01T04:55:14;2.00;;;1.60;;
23617;SDS011;18207;32.078;34.818;2022-09-01T04:57:47;1.83;;;1.73;;
23617;SDS011;18207;32.078;34.818;2022-09-01T05:00:19;1.85;;;1.75;;
23617;SDS011;18207;32.078;34.818;2022-09-01T05:03:00;1.88;;;1.77;;
23617;SDS011;18207;32.078;34.818;2022-09-01T05:05:35;1.73;;;1.63;;
23617;SDS011;18207;32.078;34.818;2022-09-01T05:08:13;1.90;;;1.80;;
23617;SDS011;18207;32.078;34.818;2022-09-01T05:10:51;1.90;;;1.80;;
23617;SDS011;18207;32.078;34.818;2022-09-01T05:13:23;1.70;;;1.60;;
23617;SDS011;18207;32.078;34.818;2022-09-01T05:16:02;1.48;;;1.45;;
23617;SDS011;18207;32.078;34.818;2022-09-01T05:18:41;1.70;;;1.60;;
23617;SDS011;18207;32.078;34.818;2022-09-01T05:21:15;1.83;;;1.70;;
23617;SDS011;18207;32.078;34.818;2022-09-01T05:23:52;1.80;;;1.70;;
23617;SDS011;18207;32.078;34.818;2022-09-01T05:26:31;2.08;;;1.75;;
23617;SDS011;18207;32.078;34.818;2022-09-01T05:29:07;1.83;;;1.60;;
23617;SDS011;18207;32.078;34.818;2022-09-01T05:31:44;1.90;;;1.80;;
23617;SDS011;18207;32.078;34.818;2022-09-01T05:34:26;1.70;;;1.60;;
23617;SDS011;18207;32.078;34.818;2022-09-01T05:36:58;1.92;;;1.83;;
23617;SDS011;18207;32.078;34.818;2022-09-01T05:39:29;1.95;;;1.85;;
23617;SDS011;18207;32.078;34.818;2022-09-01T05:42:02;2.67;;;2.10;;
23617;SDS011;18207;32.078;34.818;2022-09-01T05:44:38;1.67;;;1.58;;
23617;SDS011;18207;32.078;34.818;2022-09-01T05:47:13;2.10;;;1.80;;
23617;SDS011;18207;32.078;34.818;2022-09-01T05:49:48;1.73;;;1.63;;
23617;SDS011;18207;32.078;34.818;2022-09-01T05:52:19;1.92;;;1.83;;
23617;SDS011;18207;32.078;34.818;2022-09-01T05:54:53;2.20;;;1.80;;
23617;SDS011;18207;32.078;34.818;2022-09-01T05:57:35;1.95;;;1.80;;
23617;SDS011;18207;32.078;34.818;2022-09-01T06:00:06;1.98;;;1.83;;
23617;SDS011;18207;32.078;34.818;2022-09-01T06:02:39;1.95;;;1.73;;
23617;SDS011;18207;32.078;34.818;2022-09-01T06:05:12;1.90;;;1.80;;
23617;SDS011;18207;32.078;34.818;2022-09-01T06:07:53;1.83;;;1.70;;
23617;SDS011;18207;32.078;34.818;2022-09-01T06:10:23;1.95;;;1.70;;
23617;SDS011;18207;32.078;34.818;2022-09-01T06:12:54;1.77;;;1.67;;
23617;SDS011;18207;32.078;34.818;2022-09-01T06:15:28;1.98;;;1.73;;
23617;SDS011;18207;32.078;34.818;2022-09-01T06:18:02;2.00;;;1.85;;
23617;SDS011;18207;32.078;34.818;2022-09-01T06:20:44;3.35;;;1.90;;
23617;SDS011;18207;32.078;34.818;2022-09-01T06:23:18;1.70;;;1.60;;
23617;SDS011;18207;32.078;34.818;2022-09-01T06:25:49;1.95;;;1.75;;
23617;SDS011;18207;32.078;34.818;2022-09-01T06:28:19;2.28;;;2.08;;
23617;SDS011;18207;32.078;34.818;2022-09-01T06:30:50;1.95;;;1.85;;
23617;SDS011;18207;32.078;34.818;2022-09-01T06:33:23;2.30;;;2.08;;
23617;SDS011;18207;32.078;34.818;2022-09-01T06:35:56;1.92;;;1.83;;
23617;SDS011;18207;32.078;34.818;2022-09-01T06:38:30;1.73;;;1.63;;
23617;SDS011;18207;32.078;34.818;2022-09-01T06:41:01;1.67;;;1.58;;
23617;SDS011;18207;32.078;34.818;2022-09-01T06:43:41;1.95;;;1.77;;
23617;SDS011;18207;32.078;34.818;2022-09-01T06:46:16;1.70;;;1.52;;
23617;SDS011;18207;32.078;34.818;2022-09-01T06:48:48;1.90;;;1.80;;
23617;SDS011;18207;32.078;34.818;2022-09-01T06:51:27;1.65;;;1.52;;
23617;SDS011;18207;32.078;34.818;2022-09-01T06:54:00;1.70;;;1.60;;
23617;SDS011;18207;32.078;34.818;2022-09-01T06:56:40;1.63;;;1.52;;
23617;SDS011;18207;32.078;34.818;2022-09-01T06:59:28;2.38;;;1.63;;
23617;SDS011;18207;32.078;34.818;2022-09-01T07:02:01;1.80;;;1.70;;
23617;SDS011;18207;32.078;34.818;2022-09-01T07:04:39;1.88;;;1.40;;
23617;SDS011;18207;32.078;34.818;2022-09-01T07:07:12;2.03;;;1.60;;
23617;SDS011;18207;32.078;34.818;2022-09-01T07:10:03;1.70;;;1.60;;
23617;SDS011;18207;32.078;34.818;2022-09-01T07:12:50;1.30;;;1.30;;
23617;SDS011;18207;32.078;34.818;2022-09-01T07:15:38;1.70;;;1.60;;
23617;SDS011;18207;32.078;34.818;2022-09-01T07:18:29;1.70;;;1.60;;
23617;SDS011;18207;32.078;34.818;2022-09-01T07:21:04;1.92;;;1.52;;
23617;SDS011;18207;32.078;34.818;2022-09-01T07:24:00;1.67;;;1.58;;
23617;SDS011;18207;32.078;34.818;2022-09-01T07:26:56;1.60;;;1.50;;
23617;SDS011;18207;32.078;34.818;2022-09-01T07:29:34;1.65;;;1.55;;
23617;SDS011;18207;32.078;34.818;2022-09-01T07:32:07;1.70;;;1.60;;
23617;SDS011;18207;32.078;34.818;2022-09-01T07:35:00;1.70;;;1.60;;
23617;SDS011;18207;32.078;34.818;2022-09-01T07:37:37;1.80;;;1.60;;
23617;SDS011;18207;32.078;34.818;2022-09-01T07:40:32;1.67;;;1.58;;
23617;SDS011;18207;32.078;34.818;2022-09-01T07:43:25;1.80;;;1.50;;
23617;SDS011;18207;32.078;34.818;2022-09-01T07:46:02;1.92;;;1.73;;
23617;SDS011;18207;32.078;34.818;2022-09-01T07:48:55;1.63;;;1.52;;
23617;SDS011;18207;32.078;34.818;2022-09-01T07:51:47;1.70;;;1.60;;
23617;SDS011;18207;32.078;34.818;2022-09-01T07:54:25;1.52;;;1.42;;
23617;SDS011;18207;32.078;34.818;2022-09-01T07:56:57;1.70;;;1.60;;
23617;SDS011;18207;32.078;34.818;2022-09-01T07:59:29;1.60;;;1.50;;
23617;SDS011;18207;32.078;34.818;2022-09-01T08:01:59;2.22;;;1.75;;
23617;SDS011;18207;32.078;34.818;2022-09-01T08:04:32;1.63;;;1.52;;
23617;SDS011;18207;32.078;34.818;2022-09-01T08:07:08;2.63;;;1.80;;
23617;SDS011;18207;32.078;34.818;2022-09-01T08:09:41;1.83;;;1.73;;
23617;SDS011;18207;32.078;34.818;2022-09-01T08:12:14;1.83;;;1.73;;
23617;SDS011;18207;32.078;34.818;2022-09-01T08:14:45;2.40;;;1.70;;
23617;SDS011;18207;32.078;34.818;2022-09-01T08:17:39;1.90;;;1.80;;
23617;SDS011;18207;32.078;34.818;2022-09-01T08:20:18;1.77;;;1.67;;
23617;SDS011;18207;32.078;34.818;2022-09-01T08:22:50;1.67;;;1.58;;
23617;SDS011;18207;32.078;34.818;2022-09-01T08:25:21;2.65;;;1.90;;
23617;SDS011;18207;32.078;34.818;2022-09-01T08:27:54;1.75;;;1.65;;
23617;SDS011;18207;32.078;34.818;2022-09-01T08:30:26;2.00;;;1.80;;
23617;SDS011;18207;32.078;34.818;2022-09-01T08:33:05;1.95;;;1.85;;
23617;SDS011;18207;32.078;34.818;2022-09-01T08:35:38;1.92;;;1.83;;
23617;SDS011;18207;32.078;34.818;2022-09-01T08:38:14;1.70;;;1.60;;
23617;SDS011;18207;32.078;34.818;2022-09-01T08:43:46;1.90;;;1.80;;
23617;SDS011;18207;32.078;34.818;2022-09-01T08:46:31;2.58;;;1.80;;
23617;SDS011;18207;32.078;34.818;2022-09-01T08:49:08;1.75;;;1.65;;
23617;SDS011;18207;32.078;34.818;2022-09-01T08:51:56;1.80;;;1.60;;
23617;SDS011;18207;32.078;34.818;2022-09-01T08:54:37;1.75;;;1.65;;
23617;SDS011;18207;32.078;34.818;2022-09-01T08:57:16;2.17;;;1.80;;
23617;SDS011;18207;32.078;34.818;2022-09-01T08:59:54;1.88;;;1.77;;
23617;SDS011;18207;32.078;34.818;2022-09-01T09:05:56;1.58;;;1.48;;
23617;SDS011;18207;32.078;34.818;2022-09-01T09:08:56;1.65;;;1.55;;
23617;SDS011;18207;32.078;34.818;2022-09-01T09:11:40;1.75;;;1.65;;
23617;SDS011;18207;32.078;34.818;2022-09-01T09:14:34;1.67;;;1.58;;
23617;SDS011;18207;32.078;34.818;2022-09-01T09:17:24;1.58;;;1.48;;
23617;SDS011;18207;32.078;34.818;2022-09-01T09:20:04;1.85;;;1.63;;
23617;SDS011;18207;32.078;34.818;2022-09-01T09:22:35;1.80;;;1.70;;
23617;SDS011;18207;32.078;34.818;2022-09-01T09:25:08;1.70;;;1.55;;
23617;SDS011;18207;32.078;34.818;2022-09-01T09:27:48;1.75;;;1.65;;
23617;SDS011;18207;32.078;34.818;2022-09-01T09:30:28;1.90;;;1.80;;
23617;SDS011;18207;32.078;34.818;2022-09-01T09:33:04;1.80;;;1.70;;
23617;SDS011;18207;32.078;34.818;2022-09-01T09:36:09;1.90;;;1.80;;
23617;SDS011;18207;32.078;34.818;2022-09-01T09:39:08;1.92;;;1.70;;
23617;SDS011;18207;32.078;34.818;2022-09-01T09:41:43;1.67;;;1.50;;
23617;SDS011;18207;32.078;34.818;2022-09-01T09:44:39;1.90;;;1.80;;
23617;SDS011;18207;32.078;34.818;2022-09-01T09:50:19;1.63;;;1.52;;
23617;SDS011;18207;32.078;34.818;2022-09-01T09:53:09;1.65;;;1.55;;
23617;SDS011;18207;32.078;34.818;2022-09-01T09:55:50;1.50;;;1.40;;
23617;SDS011;18207;32.078;34.818;2022-09-01T09:58:33;1.90;;;1.80;;
23617;SDS011;18207;32.078;34.818;2022-09-01T10:01:10;1.88;;;1.77;;
23617;SDS011;18207;32.078;34.818;2022-09-01T10:04:04;1.80;;;1.70;;
23617;SDS011;18207;32.078;34.818;2022-09-01T10:06:39;1.70;;;1.60;;
23617;SDS011;18207;32.078;34.818;2022-09-01T10:09:14;1.88;;;1.63;;
23617;SDS011;18207;32.078;34.818;2022-09-01T10:12:13;1.70;;;1.60;;
23617;SDS011;18207;32.078;34.818;2022-09-01T10:14:49;1.98;;;1.88;;
23617;SDS011;18207;32.078;34.818;2022-09-01T10:17:44;1.90;;;1.70;;
23617;SDS011;18207;32.078;34.818;2022-09-01T10:20:50;2.00;;;1.75;;
23617;SDS011;18207;32.078;34.818;2022-09-01T10:23:29;2.03;;;1.67;;
23617;SDS011;18207;32.078;34.818;2022-09-01T10:26:05;1.70;;;1.60;;
23617;SDS011;18207;32.078;34.818;2022-09-01T10:28:55;1.98;;;1.88;;
23617;SDS011;18207;32.078;34.818;2022-09-01T10:31:38;2.15;;;1.98;;
23617;SDS011;18207;32.078;34.818;2022-09-01T10:34:11;2.13;;;2.03;;
23617;SDS011;18207;32.078;34.818;2022-09-01T10:36:58;2.58;;;2.05;;
23617;SDS011;18207;32.078;34.818;2022-09-01T10:39:43;2.05;;;1.88;;
23617;SDS011;18207;32.078;34.818;2022-09-01T10:46:09;2.10;;;2.00;;
23617;SDS011;18207;32.078;34.818;2022-09-01T10:52:54;1.95;;;1.85;;
23617;SDS011;18207;32.078;34.818;2022-09-01T10:55:40;1.90;;;1.80;;
23617;SDS011;18207;32.078;34.818;2022-09-01T10:58:45;1.83;;;1.73;;
23617;SDS011;18207;32.078;34.818;2022-09-01T11:05:14;1.95;;;1.85;;
23617;SDS011;18207;32.078;34.818;2022-09-01T11:07:47;1.77;;;1.67;;
23617;SDS011;18207;32.078;34.818;2022-09-01T11:10:36;2.08;;;1.88;;
23617;SDS011;18207;32.078;34.818;2022-09-01T11:13:35;2.00;;;1.90;;
23617;SDS011;18207;32.078;34.818;2022-09-01T11:16:25;1.85;;;1.75;;
23617;SDS011;18207;32.078;34.818;2022-09-01T11:19:30;1.70;;;1.60;;
23617;SDS011;18207;32.078;34.818;2022-09-01T11:22:14;2.03;;;1.90;;
23617;SDS011;18207;32.078;34.818;2022-09-01T11:25:29;1.90;;;1.80;;
23617;SDS011;18207;32.078;34.818;2022-09-01T11:28:11;1.90;;;1.80;;
23617;SDS011;18207;32.078;34.818;2022-09-01T11:34:13;2.08;;;1.88;;
23617;SDS011;18207;32.078;34.818;2022-09-01T11:36:54;2.10;;;1.90;;
23617;SDS011;18207;32.078;34.818;2022-09-01T11:39:31;2.00;;;1.90;;
23617;SDS011;18207;32.078;34.818;2022-09-01T11:42:11;1.83;;;1.73;;
23617;SDS011;18207;32.078;34.818;2022-09-01T11:44:50;2.20;;;2.00;;
23617;SDS011;18207;32.078;34.818;2022-09-01T11:47:29;1.88;;;1.77;;
23617;SDS011;18207;32.078;34.818;2022-09-01T11:50:07;3.15;;;2.20;;
23617;SDS011;18207;32.078;34.818;2022-09-01T11:53:00;1.80;;;1.70;;
23617;SDS011;18207;32.078;34.818;2022-09-01T11:55:38;1.85;;;1.75;;
23617;SDS011;18207;32.078;34.818;2022-09-01T11:58:14;1.80;;;1.70;;
23617;SDS011;18207;32.078;34.818;2022-09-01T12:01:14;2.15;;;1.85;;
23617;SDS011;18207;32.078;34.818;2022-09-01T12:03:48;1.90;;;1.80;;
23617;SDS011;18207;32.078;34.818;2022-09-01T12:06:21;1.92;;;1.80;;
23617;SDS011;18207;32.078;34.818;2022-09-01T12:08:58;1.98;;;1.85;;
23617;SDS011;18207;32.078;34.818;2022-09-01T12:11:44;2.13;;;2.00;;
23617;SDS011;18207;32.078;34.818;2022-09-01T12:14:55;1.88;;;1.77;;
23617;SDS011;18207;32.078;34.818;2022-09-01T12:17:35;1.85;;;1.70;;
23617;SDS011;18207;32.078;34.818;2022-09-01T12:20:24;2.83;;;1.75;;
23617;SDS011;18207;32.078;34.818;2022-09-01T12:22:59;1.98;;;1.88;;
23617;SDS011;18207;32.078;34.818;2022-09-01T12:25:30;2.00;;;1.90;;
23617;SDS011;18207;32.078;34.818;2022-09-01T12:28:03;2.08;;;1.90;;
23617;SDS011;18207;32.078;34.818;2022-09-01T12:30:39;2.10;;;2.00;;
23617;SDS011;18207;32.078;34.818;2022-09-01T12:33:24;1.83;;;1.73;;
23617;SDS011;18207;32.078;34.818;2022-09-01T12:39:20;1.90;;;1.80;;
23617;SDS011;18207;32.078;34.818;2022-09-01T12:45:07;1.90;;;1.80;;
23617;SDS011;18207;32.078;34.818;2022-09-01T12:47:47;2.28;;;1.70;;
23617;SDS011;18207;32.078;34.818;2022-09-01T12:53:20;1.77;;;1.67;;
23617;SDS011;18207;32.078;34.818;2022-09-01T12:56:16;2.00;;;1.77;;
23617;SDS011;18207;32.078;34.818;2022-09-01T12:59:07;1.85;;;1.75;;
23617;SDS011;18207;32.078;34.818;2022-09-01T13:01:46;1.70;;;1.60;;
23617;SDS011;18207;32.078;34.818;2022-09-01T13:04:23;1.80;;;1.70;;
23617;SDS011;18207;32.078;34.818;2022-09-01T13:07:01;1.85;;;1.75;;
23617;SDS011;18207;32.078;34.818;2022-09-01T13:09:35;1.80;;;1.70;;
23617;SDS011;18207;32.078;34.818;2022-09-01T13:12:20;1.85;;;1.75;;
23617;SDS011;18207;32.078;34.818;2022-09-01T13:14:50;1.90;;;1.80;;
23617;SDS011;18207;32.078;34.818;2022-09-01T13:17:21;2.10;;;2.00;;
23617;SDS011;18207;32.078;34.818;2022-09-01T13:19:52;2.13;;;1.90;;
23617;SDS011;18207;32.078;34.818;2022-09-01T13:22:24;1.55;;;1.55;;
23617;SDS011;18207;32.078;34.818;2022-09-01T13:24:55;1.90;;;1.80;;
23617;SDS011;18207;32.078;34.818;2022-09-01T13:27:26;1.90;;;1.80;;
23617;SDS011;18207;32.078;34.818;2022-09-01T13:29:58;1.88;;;1.60;;
23617;SDS011;18207;32.078;34.818;2022-09-01T13:32:30;1.83;;;1.73;;
23617;SDS011;18207;32.078;34.818;2022-09-01T13:35:04;1.85;;;1.73;;
23617;SDS011;18207;32.078;34.818;2022-09-01T13:38:04;1.75;;;1.65;;
23617;SDS011;18207;32.078;34.818;2022-09-01T13:40:36;2.00;;;1.90;;
23617;SDS011;18207;32.078;34.818;2022-09-01T13:43:13;1.80;;;1.70;;
23617;SDS011;18207;32.078;34.818;2022-09-01T13:45:48;1.88;;;1.45;;
23617;SDS011;18207;32.078;34.818;2022-09-01T13:48:19;1.90;;;1.80;;
23617;SDS011;18207;32.078;34.818;2022-09-01T13:51:22;1.73;;;1.63;;
23617;SDS011;18207;32.078;34.818;2022-09-01T13:53:56;1.95;;;1.70;;
23617;SDS011;18207;32.078;34.818;2022-09-01T13:56:29;1.63;;;1.52;;
23617;SDS011;18207;32.078;34.818;2022-09-01T13:58:59;1.80;;;1.70;;
23617;SDS011;18207;32.078;34.818;2022-09-01T14:01:31;1.98;;;1.73;;
23617;SDS011;18207;32.078;34.818;2022-09-01T14:04:01;2.00;;;1.90;;
23617;SDS011;18207;32.078;34.818;2022-09-01T14:06:32;1.95;;;1.85;;
23617;SDS011;18207;32.078;34.818;2022-09-01T14:09:09;2.05;;;1.85;;
23617;SDS011;18207;32.078;34.818;2022-09-01T14:11:43;1.85;;;1.73;;
23617;SDS011;18207;32.078;34.818;2022-09-01T14:14:14;2.10;;;1.90;;
23617;SDS011;18207;32.078;34.818;2022-09-01T14:16:44;2.00;;;1.90;;
23617;SDS011;18207;32.078;34.818;2022-09-01T14:19:15;1.83;;;1.73;;
23617;SDS011;18207;32.078;34.818;2022-09-01T14:21:47;2.05;;;1.75;;
23617;SDS011;18207;32.078;34.818;2022-09-01T14:24:19;1.85;;;1.75;;
23617;SDS011;18207;32.078;34.818;2022-09-01T14:26:50;2.08;;;1.98;;
23617;SDS011;18207;32.078;34.818;2022-09-01T14:29:20;2.25;;;2.05;;
23617;SDS011;18207;32.078;34.818;2022-09-01T14:31:51;1.92;;;1.83;;
23617;SDS011;18207;32.078;34.818;2022-09-01T14:34:22;2.20;;;2.00;;
23617;SDS011;18207;32.078;34.818;2022-09-01T14:36:52;2.10;;;1.98;;
23617;SDS011;18207;32.078;34.818;2022-09-01T14:39:27;1.83;;;1.73;;
23617;SDS011;18207;32.078;34.818;2022-09-01T14:42:01;2.17;;;2.00;;
23617;SDS011;18207;32.078;34.818;2022-09-01T14:47:21;2.75;;;1.80;;
23617;SDS011;18207;32.078;34.818;2022-09-01T14:49:53;2.25;;;2.10;;
23617;SDS011;18207;32.078;34.818;2022-09-01T14:52:33;1.92;;;1.83;;
23617;SDS011;18207;32.078;34.818;2022-09-01T14:55:08;1.73;;;1.63;;
23617;SDS011;18207;32.078;34.818;2022-09-01T14:57:40;2.00;;;1.90;;
23617;SDS011;18207;32.078;34.818;2022-09-01T15:00:13;1.80;;;1.70;;
23617;SDS011;18207;32.078;34.818;2022-09-01T15:02:44;2.00;;;1.90;;
23617;SDS011;18207;32.078;34.818;2022-09-01T15:05:15;1.80;;;1.70;;
23617;SDS011;18207;32.078;34.818;2022-09-01T15:07:47;2.17;;;1.90;;
23617;SDS011;18207;32.078;34.818;2022-09-01T15:10:23;1.80;;;1.70;;
23617;SDS011;18207;32.078;34.818;2022-09-01T15:13:00;1.88;;;1.77;;
23617;SDS011;18207;32.078;34.818;2022-09-01T15:15:37;1.80;;;1.70;;
23617;SDS011;18207;32.078;34.818;2022-09-01T15:18:15;1.92;;;1.80;;
23617;SDS011;18207;32.078;34.818;2022-09-01T15:20:48;2.15;;;1.83;;
23617;SDS011;18207;32.078;34.818;2022-09-01T15:23:27;1.88;;;1.77;;
23617;SDS011;18207;32.078;34.818;2022-09-01T15:26:28;2.30;;;1.73;;
23617;SDS011;18207;32.078;34.818;2022-09-01T15:29:09;2.25;;;1.95;;
23617;SDS011;18207;32.078;34.818;2022-09-01T15:31:57;2.42;;;1.80;;
23617;SDS011;18207;32.078;34.818;2022-09-01T15:34:47;1.90;;;1.80;;
23617;SDS011;18207;32.078;34.818;2022-09-01T15:37:19;1.55;;;1.52;;
23617;SDS011;18207;32.078;34.818;2022-09-01T15:39:51;1.70;;;1.60;;
23617;SDS011;18207;32.078;34.818;2022-09-01T15:42:27;1.75;;;1.65;;
23617;SDS011;18207;32.078;34.818;2022-09-01T15:45:03;1.73;;;1.63;;
23617;SDS011;18207;32.078;34.818;2022-09-01T15:47:38;1.65;;;1.60;;
23617;SDS011;18207;32.078;34.818;2022-09-01T15:50:13;1.70;;;1.60;;
23617;SDS011;18207;32.078;34.818;2022-09-01T15:55:42;1.70;;;1.60;;
23617;SDS011;18207;32.078;34.818;2022-09-01T15:58:16;1.70;;;1.60;;
23617;SDS011;18207;32.078;34.818;2022-09-01T16:00:55;1.80;;;1.70;;
23617;SDS011;18207;32.078;34.818;2022-09-01T16:03:30;1.90;;;1.80;;
23617;SDS011;18207;32.078;34.818;2022-09-01T16:06:00;1.80;;;1.67;;
23617;SDS011;18207;32.078;34.818;2022-09-01T16:08:34;1.77;;;1.67;;
23617;SDS011;18207;32.078;34.818;2022-09-01T16:11:09;1.92;;;1.83;;
23617;SDS011;18207;32.078;34.818;2022-09-01T16:13:45;1.70;;;1.60;;
23617;SDS011;18207;32.078;34.818;2022-09-01T16:16:28;1.60;;;1.50;;
23617;SDS011;18207;32.078;34.818;2022-09-01T16:19:27;1.63;;;1.52;;
23617;SDS011;18207;32.078;34.818;2022-09-01T16:22:09;1.88;;;1.77;;
23617;SDS011;18207;32.078;34.818;2022-09-01T16:24:51;1.75;;;1.65;;